Time;durP1;ratioP1;P1;durP2;ratioP2;P2;SDS_P1;SDS_P2;PMS_P1;PMS_P2;Temp;Humidity;BMP_temperature;BMP_pressure;BME280_temperature;BME280_humidity;BME280_pressure;Samples;Min_cycle;Max_cycle;Signal;HPM_P1;HPM_P2
2022/06/05 00:00:18;;;;;;;3.80;3.40;;;23.80;83.70;;;24.23;50.77;98657.50;4871195;28;124298;-89
2022/06/05 00:03:06;;;;;;;4.40;3.50;;;23.70;83.80;;;24.20;50.86;98649.00;4871838;28;114397;-89
2022/06/05 00:06:03;;;;;;;4.53;3.87;;;23.70;84.00;;;24.19;51.00;98641.75;4872368;28;113717;-90
2022/06/05 00:08:47;;;;;;;3.30;3.10;;;23.70;84.10;;;24.15;50.90;98638.97;4856900;28;123005;-90
2022/06/05 00:11:15;;;;;;;3.73;3.43;;;23.60;84.30;;;24.13;51.04;98630.09;4872896;28;123923;-92
2022/06/05 00:13:51;;;;;;;3.50;3.17;;;23.60;84.40;;;24.15;51.01;98624.00;4872934;28;113695;-88
2022/06/05 00:16:26;;;;;;;3.50;3.20;;;23.60;84.50;;;24.14;51.07;98620.41;4874658;28;113927;-92
2022/06/05 00:18:52;;;;;;;3.47;3.17;;;23.60;84.60;;;24.13;51.19;98624.44;4873965;28;123392;-90
2022/06/05 00:21:19;;;;;;;3.60;3.30;;;23.60;84.80;;;24.13;51.29;98620.81;4874198;28;123738;-82
2022/06/05 00:23:46;;;;;;;3.87;3.43;;;23.60;84.90;;;24.11;51.42;98621.22;4859399;28;113308;-84
2022/06/05 00:26:32;;;;;;;3.60;3.30;;;23.60;85.00;;;24.09;51.18;98620.00;4874273;28;113247;-82
2022/06/05 00:29:30;;;;;;;4.20;3.70;;;23.50;85.10;;;24.06;51.54;98613.16;4871070;28;124567;-82
2022/06/05 00:32:18;;;;;;;3.50;3.20;;;23.60;85.20;;;24.05;51.41;98610.75;4873644;28;123891;-80
2022/06/05 00:34:44;;;;;;;3.30;3.03;;;23.50;85.30;;;24.03;51.38;98620.44;4873274;28;114973;-83
2022/06/05 00:37:36;;;;;;;3.80;3.50;;;23.50;85.40;;;24.02;51.54;98615.22;4872261;28;114251;-82
2022/06/05 00:40:48;;;;;;;3.90;3.50;;;23.50;85.60;;;23.99;51.59;98607.53;4855643;28;122920;-83
2022/06/05 00:43:18;;;;;;;3.50;3.20;;;23.50;85.60;;;23.98;51.77;98605.94;4870989;28;124271;-81
2022/06/05 00:45:46;;;;;;;7.93;4.00;;;23.50;85.80;;;23.95;51.56;98604.72;4855907;28;114134;-82
2022/06/05 00:48:13;;;;;;;4.37;4.07;;;23.40;85.80;;;23.91;51.84;98603.94;4872979;28;114055;-81
2022/06/05 00:50:42;;;;;;;4.17;3.77;;;23.40;85.90;;;23.87;51.85;98605.16;4856214;28;124021;-82
2022/06/05 00:53:11;;;;;;;3.63;3.33;;;23.40;86.00;;;23.86;51.90;98603.53;4855057;28;123018;-82
2022/06/05 00:55:47;;;;;;;4.00;3.60;;;23.30;86.00;;;23.84;51.90;98603.16;4856436;28;114387;-83
2022/06/05 00:58:16;;;;;;;4.03;3.70;;;23.30;86.20;;;23.84;51.94;98594.69;4868421;28;113923;-83
2022/06/05 01:00:52;;;;;;;3.50;3.20;;;23.30;86.20;;;23.81;52.11;98587.84;4871968;28;122530;-81
2022/06/05 01:03:20;;;;;;;4.07;3.27;;;23.30;86.30;;;23.79;52.01;98593.88;4863447;28;124118;-81
2022/06/05 01:05:47;;;;;;;4.00;3.60;;;23.30;86.30;;;23.78;51.91;98605.59;4855962;28;114313;-81
2022/06/05 01:08:16;;;;;;;4.43;4.03;;;23.30;86.40;;;23.76;52.00;98603.16;4873567;28;113548;-83
2022/06/05 01:10:45;;;;;;;4.50;4.10;;;23.20;86.40;;;23.75;52.08;98610.03;4872419;28;124283;-84
2022/06/05 01:13:29;;;;;;;5.20;3.90;;;23.20;86.60;;;23.71;52.08;98606.38;4869398;28;124079;-83
2022/06/05 01:16:28;;;;;;;4.40;4.00;;;23.20;86.60;;;23.67;52.21;98619.69;4882303;28;114404;-82
2022/06/05 01:19:27;;;;;;;4.60;3.57;;;23.20;86.60;;;23.65;52.26;98619.28;4867667;28;113986;-83
2022/06/05 01:22:50;;;;;;;4.77;4.27;;;23.10;86.70;;;23.56;52.42;98630.97;4874139;28;126704;-83
2022/06/05 01:25:53;;;;;;;4.80;4.33;;;23.10;86.80;;;23.53;52.38;98636.59;4873939;28;124398;-83
2022/06/05 01:28:24;;;;;;;4.80;4.30;;;23.00;87.00;;;23.52;52.38;98627.34;4852531;28;115546;-81
2022/06/05 01:31:12;;;;;;;4.27;3.50;;;23.00;87.00;;;23.52;52.78;98637.81;4855233;28;114839;-82
2022/06/05 01:33:50;;;;;;;4.17;3.77;;;23.00;87.10;;;23.52;52.37;98646.28;4857302;28;124027;-83
2022/06/05 01:36:36;;;;;;;3.37;3.17;;;23.00;87.10;;;23.53;52.37;98647.88;4855374;28;123336;-84
2022/06/05 01:39:10;;;;;;;3.90;3.50;;;23.00;87.20;;;23.53;52.50;98645.84;4871760;28;113262;-78
2022/06/05 01:41:46;;;;;;;8.10;4.37;;;23.00;87.20;;;23.50;52.40;98638.22;4870842;28;113981;-82
2022/06/05 01:44:20;;;;;;;4.60;3.87;;;23.00;87.30;;;23.45;52.65;98635.00;4864602;28;124055;-81
2022/06/05 01:46:48;;;;;;;4.43;4.03;;;22.90;87.30;;;23.42;52.47;98633.78;4871886;28;123968;-81
2022/06/05 01:49:31;;;;;;;3.83;3.53;;;22.90;87.40;;;23.40;52.77;98641.84;4855465;28;113505;-83
2022/06/05 01:52:13;;;;;;;4.40;4.00;;;22.80;87.40;;;23.37;52.78;98640.66;4847969;28;114536;-84
2022/06/05 01:55:07;;;;;;;4.57;3.90;;;22.90;87.60;;;23.36;52.63;98619.28;4867367;28;124095;-81
2022/06/05 01:57:35;;;;;;;4.93;3.77;;;22.80;87.50;;;23.31;52.71;98619.69;4872940;28;123534;-80
2022/06/05 02:00:20;;;;;;;4.70;4.30;;;22.80;87.60;;;23.27;52.82;98607.63;4872343;28;114318;-81
2022/06/05 02:03:07;;;;;;;7.03;4.03;;;22.80;87.60;;;23.21;53.09;98592.28;4854545;28;113808;-81
2022/06/05 02:05:55;;;;;;;4.80;4.30;;;22.70;87.80;;;23.12;53.37;98575.78;4856587;28;124177;-81
2022/06/05 02:08:29;;;;;;;4.43;4.00;;;22.60;88.00;;;23.06;53.35;98579.41;4855928;28;123899;-80
2022/06/05 02:11:16;;;;;;;5.27;4.50;;;22.60;88.10;;;23.05;53.14;98591.88;4872366;28;114239;-80
2022/06/05 02:13:42;;;;;;;4.00;3.60;;;22.50;88.20;;;23.05;53.48;98592.72;4865854;28;113274;-82
2022/06/05 02:16:09;;;;;;;5.27;4.77;;;22.50;88.40;;;23.08;53.30;98596.75;4841591;28;123135;-80
2022/06/05 02:18:36;;;;;;;3.87;3.57;;;22.50;88.50;;;23.08;53.37;98582.66;4864325;28;123862;-82
2022/06/05 02:21:04;;;;;;;4.30;3.90;;;22.50;88.50;;;23.09;53.56;98579.41;4853247;28;114448;-81
2022/06/05 02:23:37;;;;;;;4.23;3.83;;;22.50;88.50;;;23.12;53.38;98563.72;4853950;28;114799;-81
2022/06/05 02:26:06;;;;;;;4.90;3.87;;;22.60;88.70;;;23.11;53.33;98548.03;4854417;28;124219;-78
2022/06/05 02:28:34;;;;;;;4.43;4.00;;;22.60;88.70;;;23.13;53.52;98528.66;4873792;28;124279;-83
2022/06/05 02:31:30;;;;;;;4.30;4.00;;;22.60;88.80;;;23.12;53.35;98513.78;4856601;28;112965;-84
2022/06/05 02:34:33;;;;;;;4.80;3.83;;;22.60;88.80;;;23.09;53.37;98494.06;4872446;28;115471;-80
2022/06/05 02:37:09;;;;;;;4.40;4.00;;;22.60;88.80;;;23.07;53.66;98468.28;4858988;28;123897;-78
2022/06/05 02:40:11;;;;;;;7.93;5.40;;;22.50;89.00;;;22.97;54.00;98446.56;4856894;28;123296;-80
2022/06/05 02:43:17;;;;;;;5.13;4.73;;;22.50;89.40;;;22.77;54.27;98438.50;4876954;28;114514;-81
2022/06/05 02:46:25;;;;;;;4.80;4.40;;;22.30;89.60;;;22.66;54.35;98437.72;4864356;28;113808;-82
2022/06/05 02:49:19;;;;;;;5.83;5.30;;;22.20;89.80;;;22.63;54.58;98438.53;4825047;28;123509;-83
2022/06/05 02:51:47;;;;;;;5.40;4.90;;;22.20;90.00;;;22.62;54.61;98449.00;4837161;28;122775;-82
2022/06/05 02:54:26;;;;;;;4.63;4.23;;;22.10;90.00;;;22.62;54.67;98465.06;4854331;28;114181;-80
2022/06/05 02:56:55;;;;;;;5.97;5.43;;;22.10;90.00;;;22.60;54.96;98467.50;4869835;28;113747;-82
2022/06/05 02:59:23;;;;;;;5.50;4.97;;;22.10;90.10;;;22.58;54.75;98469.91;4872757;28;124198;-83
2022/06/05 03:04:35;;;;;;;4.90;4.50;;;22.10;90.30;;;22.51;55.12;98490.38;4874113;28;115371;-83
2022/06/05 03:07:01;;;;;;;4.90;4.50;;;22.00;90.60;;;22.54;55.11;98483.16;4870245;28;114207;-83
2022/06/05 03:09:28;;;;;;;4.53;4.13;;;22.00;90.30;;;22.56;54.83;98475.13;4870784;28;124004;-81
2022/06/05 03:11:55;;;;;;;4.50;4.13;;;20.80;89.60;;;22.59;54.72;98474.31;4871022;28;123962;-80
2022/06/05 03:14:21;;;;;;;3.80;3.50;;;22.10;90.40;;;22.61;55.07;98469.09;4870679;28;115585;-82
2022/06/05 03:16:48;;;;;;;4.50;4.10;;;22.10;90.40;;;22.63;54.81;98466.69;4875922;28;114946;-83
2022/06/05 03:19:14;;;;;;;4.43;4.03;;;22.10;90.40;;;22.65;54.74;98453.00;4873963;28;124115;-81
2022/06/05 03:21:41;;;;;;;4.27;3.87;;;22.10;90.40;;;22.67;54.98;98440.09;4874073;28;124117;-82
2022/06/05 03:24:08;;;;;;;4.77;4.27;;;22.10;90.50;;;22.69;55.20;98436.91;4874014;28;114392;-83
2022/06/05 03:26:35;;;;;;;4.13;3.30;;;22.10;90.50;;;22.68;55.23;98430.47;4860324;28;114110;-85
2022/06/05 03:29:02;;;;;;;3.83;3.53;;;22.10;90.50;;;22.69;54.94;98426.44;4872678;28;124160;-80
2022/06/05 03:31:29;;;;;;;4.17;3.87;;;22.10;90.50;;;22.68;55.18;98421.22;4873242;28;123005;-81
2022/06/05 03:33:57;;;;;;;4.53;4.13;;;22.10;90.50;;;22.68;55.12;98422.03;4874698;28;114903;-82
2022/06/05 03:36:24;;;;;;;4.77;4.37;;;22.10;90.50;;;22.70;55.00;98422.44;4875452;28;113620;-86
2022/06/05 03:38:50;;;;;;;4.57;4.10;;;22.10;90.60;;;22.71;54.83;98426.03;4872713;28;124175;-82
2022/06/05 03:41:17;;;;;;;4.50;4.10;;;22.10;90.60;;;22.71;55.11;98426.84;4856588;28;123641;-82
2022/06/05 03:43:44;;;;;;;5.13;4.70;;;22.10;90.60;;;22.72;55.04;98436.09;4872766;28;115067;-82
2022/06/05 03:46:14;;;;;;;4.73;4.33;;;22.10;90.60;;;22.72;55.10;98441.72;4856902;28;113783;-82
2022/06/05 03:48:41;;;;;;;5.10;3.80;;;22.10;90.60;;;22.71;55.04;98459.84;4859255;28;123393;-82
2022/06/05 03:51:19;;;;;;;4.77;4.30;;;22.10;90.60;;;22.64;54.93;98480.34;4856749;28;123310;-83
2022/06/05 03:53:47;;;;;;;4.40;4.00;;;22.10;90.60;;;22.58;55.33;98492.41;4869649;28;113365;-82
2022/06/05 03:56:18;;;;;;;4.83;4.43;;;22.00;90.60;;;22.51;55.34;98510.09;4857705;28;114384;-83
2022/06/05 03:58:46;;;;;;;4.87;4.37;;;22.00;90.70;;;22.47;55.74;98538.25;4866753;28;124670;-83
2022/06/05 04:01:16;;;;;;;5.20;4.70;;;22.00;90.80;;;22.41;55.52;98556.75;4873444;28;124047;-84
2022/06/05 04:03:43;;;;;;;8.03;5.60;;;21.90;90.80;;;22.33;55.95;98577.63;4843089;28;114507;-82
2022/06/05 04:06:13;;;;;;;5.70;5.10;;;21.90;90.90;;;22.22;55.84;98559.91;4873567;28;114834;-81
2022/06/05 04:08:40;;;;;;;5.57;5.07;;;21.80;90.90;;;22.18;56.18;98542.16;4855120;28;124564;-83
2022/06/05 04:11:14;;;;;;;5.30;4.90;;;21.80;91.10;;;22.17;56.59;98532.13;4856543;28;123881;-83
2022/06/05 04:14:02;;;;;;;5.10;4.70;;;21.70;91.10;;;22.15;56.62;98524.06;4857013;28;114746;-85
2022/06/05 04:16:31;;;;;;;5.10;4.37;;;21.70;91.20;;;22.15;56.68;98520.44;4849246;28;114303;-82
2022/06/05 04:19:00;;;;;;;4.90;4.50;;;21.70;91.30;;;22.17;56.62;98509.59;4855782;28;124549;-83
2022/06/05 04:22:04;;;;;;;4.50;4.10;;;21.60;91.30;;;22.18;56.62;98480.25;4854700;28;123984;-81
2022/06/05 04:24:31;;;;;;;4.53;4.10;;;21.70;91.40;;;22.22;56.44;98465.03;4858160;28;114287;-82
2022/06/05 04:26:58;;;;;;;5.03;4.63;;;21.70;91.60;;;22.23;57.21;98468.63;4860118;28;114156;-83
2022/06/05 04:29:25;;;;;;;5.20;4.80;;;21.70;91.80;;;22.20;56.86;98461.00;4872589;28;124690;-83
2022/06/05 04:31:51;;;;;;;6.07;5.47;;;21.60;91.90;;;22.16;57.65;98488.28;4874867;28;125646;-82
2022/06/05 04:34:22;;;;;;;6.03;5.43;;;21.60;92.10;;;22.10;57.65;98512.38;4862773;28;115387;-82
2022/06/05 04:36:49;;;;;;;6.37;5.87;;;21.60;92.30;;;22.07;57.67;98525.25;4847132;28;114053;-81
2022/06/05 04:39:17;;;;;;;6.53;5.83;;;21.50;92.30;;;22.04;57.91;98521.22;4857208;28;124028;-84
2022/06/05 04:41:45;;;;;;;6.20;5.63;;;21.50;92.30;;;22.02;58.09;98522.81;4853544;28;123761;-84
2022/06/05 04:44:14;;;;;;;5.23;4.73;;;21.50;92.30;;;21.98;57.89;98534.06;4854049;28;115401;-82
2022/06/05 04:46:41;;;;;;;5.53;5.03;;;21.50;92.40;;;21.96;57.96;98538.47;4847327;28;113961;-82
2022/06/05 04:49:09;;;;;;;5.83;5.33;;;21.50;92.50;;;21.94;58.40;98546.50;4851383;28;124041;-84
2022/06/05 04:51:36;;;;;;;5.00;4.50;;;21.40;92.50;;;21.90;58.52;98552.09;4853240;28;123715;-83
2022/06/05 04:54:05;;;;;;;10.80;5.80;;;21.40;92.50;;;21.86;58.67;98554.06;4853413;28;115299;-82
2022/06/05 04:56:32;;;;;;;6.97;5.10;;;21.40;92.60;;;21.86;58.36;98542.03;4854047;28;114309;-81
2022/06/05 04:59:01;;;;;;;5.23;4.73;;;21.40;92.70;;;21.82;58.58;98539.22;4853202;28;123859;-83
2022/06/05 05:01:32;;;;;;;7.23;5.50;;;21.30;92.80;;;21.78;59.03;98558.06;4854760;28;123589;-84
2022/06/05 05:04:03;;;;;;;5.87;5.27;;;21.30;92.80;;;21.71;58.69;98581.34;4855824;28;114425;-81
2022/06/05 05:06:31;;;;;;;6.23;5.63;;;21.30;93.00;;;21.61;59.28;98584.88;4854837;28;114012;-81
2022/06/05 05:08:59;;;;;;;6.30;5.70;;;21.20;93.10;;;21.51;59.70;98608.91;4873277;28;125076;-83
2022/06/05 05:11:27;;;;;;;6.30;5.70;;;21.10;93.20;;;21.45;60.01;98610.47;4873195;28;123737;-83
2022/06/05 05:14:00;;;;;;;6.80;5.17;;;21.10;93.30;;;21.38;59.84;98607.59;4872965;28;115695;-82
2022/06/05 05:16:29;;;;;;;5.77;5.23;;;21.00;93.50;;;21.34;60.45;98612.38;4855933;28;112809;-82
2022/06/05 05:18:56;;;;;;;6.20;5.60;;;20.90;93.50;;;21.29;60.40;98626.78;4855113;28;124305;-83
2022/06/05 05:21:25;;;;;;;7.60;6.90;;;20.90;93.70;;;21.21;60.66;98639.94;4855531;28;124673;-80
2022/06/05 05:23:53;;;;;;;7.53;6.77;;;20.80;94.00;;;21.09;61.17;98655.09;4872218;28;114351;-84
2022/06/05 05:26:32;;;;;;;6.90;6.10;;;20.70;94.20;;;21.01;61.65;98659.03;4874637;28;114156;-83
2022/06/05 05:29:00;;;;;;;6.70;6.07;;;20.60;94.40;;;20.98;61.69;98659.78;4857240;28;124038;-83
2022/06/05 05:31:36;;;;;;;6.53;5.93;;;20.60;94.60;;;20.91;61.80;98646.50;4857841;28;123875;-80
2022/06/05 05:34:04;;;;;;;7.27;6.57;;;20.50;94.70;;;20.87;63.02;98633.59;4855684;28;113625;-84
2022/06/05 05:36:31;;;;;;;8.93;6.77;;;20.50;95.30;;;20.82;62.56;98608.66;4844332;28;113973;-83
2022/06/05 05:44:46;;;;;;;6.70;6.10;;;20.40;95.60;;;20.92;62.84;98596.75;4870310;28;115780;-81
2022/06/05 05:47:28;;;;;;;6.33;5.47;;;20.40;95.70;;;20.97;63.03;98613.25;4871126;28;115091;-82
2022/06/05 05:50:04;;;;;;;5.70;5.10;;;20.40;95.90;;;20.99;62.93;98630.53;4857172;28;122966;-82
2022/06/05 05:52:32;;;;;;;5.40;4.90;;;20.50;95.80;;;21.01;62.85;98670.28;4840028;28;123139;-84
2022/06/05 05:54:59;;;;;;;6.73;5.87;;;20.50;95.90;;;21.02;63.12;98699.97;4851680;28;113833;-82
2022/06/05 05:57:26;;;;;;;8.30;6.80;;;20.50;96.10;;;20.98;63.31;98710.34;4862041;28;113949;-82
2022/06/05 05:59:53;;;;;;;6.67;6.07;;;20.50;96.30;;;20.91;63.86;98713.91;4874616;28;124064;-81
2022/06/05 06:02:22;;;;;;;5.70;5.20;;;20.40;96.30;;;20.88;63.84;98711.06;4875202;28;123848;-84
2022/06/05 06:04:51;;;;;;;5.70;5.20;;;20.40;96.40;;;20.87;64.19;98701.00;4856853;28;113689;-85
2022/06/05 06:07:19;;;;;;;6.97;6.27;;;20.40;96.50;;;20.87;64.00;98672.91;4876158;28;113013;-83
2022/06/05 06:09:46;;;;;;;7.60;6.00;;;20.40;96.80;;;20.87;64.34;98628.78;4857478;28;123989;-81
2022/06/05 06:12:13;;;;;;;6.30;5.50;;;20.40;96.80;;;20.91;63.97;98595.94;4873530;28;123751;-82
2022/06/05 06:14:40;;;;;;;6.33;5.70;;;20.40;96.90;;;20.96;64.30;98569.50;4872053;28;114714;-82
2022/06/05 06:17:07;;;;;;;6.17;5.57;;;20.40;97.10;;;20.98;64.02;98557.88;4839760;28;114077;-83
2022/06/05 06:19:34;;;;;;;6.27;5.67;;;20.40;97.10;;;20.98;64.25;98567.09;4854811;28;123887;-78
2022/06/05 06:22:00;;;;;;;5.20;4.70;;;20.40;97.20;;;21.00;64.20;98559.09;4874577;28;123526;-82
2022/06/05 06:24:27;;;;;;;6.37;5.70;;;20.40;97.40;;;21.04;64.34;98547.91;4871902;28;114151;-82
2022/06/05 06:26:53;;;;;;;6.43;5.10;;;20.40;97.50;;;21.05;64.55;98533.44;4871688;28;115362;-82
2022/06/05 06:29:20;;;;;;;5.97;5.37;;;20.40;97.70;;;21.06;64.90;98512.59;4870590;28;124164;-83
2022/06/05 06:31:49;;;;;;;6.93;5.30;;;20.50;97.80;;;21.02;64.51;98497.72;4871247;28;122900;-85
2022/06/05 06:34:15;;;;;;;6.43;4.50;;;20.40;97.80;;;21.02;64.82;98471.63;4871514;28;115767;-81
2022/06/05 06:36:42;;;;;;;5.07;4.27;;;20.40;97.80;;;21.02;64.39;98447.16;4871581;28;115062;-82
2022/06/05 06:39:08;;;;;;;6.23;4.70;;;20.40;97.70;;;21.01;64.95;98458.78;4874767;28;123530;-84
2022/06/05 06:41:35;;;;;;;6.10;5.50;;;20.40;97.90;;;20.96;65.18;98457.16;4873650;28;124345;-82
2022/06/05 06:44:03;;;;;;;6.20;4.73;;;20.40;98.30;;;20.92;65.39;98431.03;4870850;28;114634;-83
2022/06/05 06:46:31;;;;;;;5.10;4.60;;;20.40;98.10;;;20.92;65.06;98406.56;4873741;28;113798;-79
2022/06/05 06:48:58;;;;;;;4.10;3.70;;;20.40;98.00;;;20.93;65.03;98413.00;4871095;28;124512;-83
2022/06/05 06:51:25;;;;;;;4.50;4.10;;;20.40;98.00;;;20.94;65.10;98420.22;4872759;28;123677;-81
2022/06/05 06:53:51;;;;;;;4.47;4.07;;;20.40;98.20;;;20.91;65.08;98388.09;4873902;28;114431;-84
2022/06/05 06:56:28;;;;;;;4.40;3.60;;;20.40;98.20;;;20.89;65.04;98384.06;4871266;28;113850;-82
2022/06/05 06:58:57;;;;;;;3.80;3.40;;;20.40;98.10;;;20.91;64.87;98376.88;4870814;28;124188;-82
2022/06/05 07:01:24;;;;;;;4.87;3.90;;;20.40;98.10;;;20.93;64.99;98371.69;4869164;28;124162;-83
2022/06/05 07:03:50;;;;;;;4.50;3.50;;;20.50;98.10;;;21.00;64.38;98378.53;4860681;28;113200;-82
2022/06/05 07:06:18;;;;;;;3.47;3.17;;;20.40;98.00;;;21.04;64.25;98349.25;4871425;28;113968;-83
2022/06/05 07:08:44;;;;;;;3.43;3.07;;;20.40;97.90;;;21.08;64.50;98321.97;4872885;28;124085;-84
2022/06/05 07:11:14;;;;;;;3.47;3.17;;;20.50;97.90;;;21.13;64.54;98320.81;4862859;28;123872;-84
2022/06/05 07:13:41;;;;;;;2.93;2.57;;;20.50;97.90;;;21.18;64.30;98380.22;4823525;28;114607;-82
2022/06/05 07:16:11;;;;;;;7.73;2.70;;;20.60;97.90;;;21.23;64.02;98378.25;4869924;28;112877;-85
2022/06/05 07:18:38;;;;;;;2.83;2.63;;;20.60;97.90;;;21.25;64.36;98395.50;4863268;28;124998;-83
2022/06/05 07:21:15;;;;;;;4.47;2.87;;;20.60;97.80;;;21.18;64.17;98365.38;4856439;28;123313;-80
2022/06/05 07:23:43;;;;;;;4.23;3.23;;;20.60;97.70;;;21.12;64.08;98398.66;4855140;28;115325;-82
2022/06/05 07:26:12;;;;;;;3.20;2.50;;;20.60;97.60;;;21.10;63.96;98344.88;4873981;28;114250;-84
2022/06/05 07:28:40;;;;;;;6.63;2.93;;;20.60;97.60;;;21.13;64.26;98405.88;4872047;28;123108;-83
2022/06/05 07:31:08;;;;;;;2.97;2.70;;;20.60;97.50;;;21.10;63.63;98406.69;4843707;28;123212;-85
2022/06/05 07:33:35;;;;;;;2.80;2.60;;;20.60;97.40;;;21.08;63.63;98386.59;4869705;28;114685;-79
2022/06/05 07:36:06;;;;;;;3.70;3.00;;;20.50;97.20;;;21.11;63.59;98388.59;4850563;28;114090;-83
2022/06/05 07:38:35;;;;;;;2.40;2.20;;;20.60;97.30;;;21.16;63.57;98384.63;4869392;28;123878;-82
2022/06/05 07:41:04;;;;;;;2.40;2.20;;;20.60;97.30;;;21.18;63.44;98369.00;4855985;28;123788;-83
2022/06/05 07:43:30;;;;;;;3.50;2.67;;;20.60;97.20;;;21.19;63.30;98353.72;4872360;28;114288;-83
2022/06/05 07:46:02;;;;;;;2.97;2.23;;;20.60;97.10;;;21.23;63.46;98361.41;4872054;28;114080;-83
2022/06/05 07:48:28;;;;;;;2.50;2.30;;;20.70;97.20;;;21.28;63.49;98389.09;4869536;28;124021;-83
2022/06/05 07:56:39;;;;;;;3.13;2.50;;;20.70;97.20;;;21.30;63.29;98426.84;4859039;28;114970;-83
2022/06/05 07:59:06;;;;;;;2.53;2.33;;;20.70;97.20;;;21.35;63.32;98434.09;4870175;28;124990;-79
2022/06/05 08:01:32;;;;;;;2.30;2.10;;;20.80;97.30;;;21.42;63.36;98433.38;4869572;28;123987;-81
2022/06/05 08:03:59;;;;;;;1.90;1.80;;;20.80;97.30;;;21.47;63.21;98433.81;4873408;28;114297;-84
2022/06/05 08:06:25;;;;;;;3.30;2.47;;;20.80;97.20;;;21.44;62.87;98428.16;4872897;28;113932;-82
2022/06/05 08:08:52;;;;;;;3.07;2.40;;;20.80;97.00;;;21.42;62.90;98416.50;4874970;28;123363;-83
2022/06/05 08:11:19;;;;;;;3.00;2.57;;;20.80;96.90;;;21.39;62.65;98406.88;4856232;28;123608;-83
2022/06/05 08:13:45;;;;;;;2.73;2.23;;;20.80;96.80;;;21.39;62.67;98406.88;4855206;28;115970;-85
2022/06/05 08:16:12;;;;;;;3.20;2.00;;;20.80;96.80;;;21.43;62.67;98416.09;4873122;28;114817;-81
2022/06/05 08:18:39;;;;;;;2.50;2.30;;;20.90;96.80;;;21.50;62.34;98418.16;4870245;28;123986;-82
2022/06/05 08:21:06;;;;;;;2.70;2.10;;;20.90;96.80;;;21.55;62.52;98423.41;4871717;28;123786;-82
2022/06/05 08:23:36;;;;;;;2.20;2.00;;;20.90;96.80;;;21.65;62.50;98431.03;4859356;28;97024;-82
2022/06/05 08:26:03;;;;;;;2.10;1.90;;;21.00;96.80;;;21.74;61.97;98416.63;4873463;28;114386;-84
2022/06/05 08:28:30;;;;;;;2.23;2.03;;;21.10;96.80;;;21.79;62.15;98419.06;4872333;28;123602;-81
2022/06/05 08:30:56;;;;;;;5.10;2.67;;;21.10;96.70;;;21.82;62.20;98419.06;4872643;28;123840;-84
2022/06/05 08:33:23;;;;;;;2.00;1.83;;;21.20;96.70;;;21.87;62.23;98425.50;4858463;28;114234;-83
2022/06/05 08:35:50;;;;;;;2.30;2.10;;;21.20;96.70;;;21.92;62.00;98411.03;4871836;28;113600;-83
2022/06/05 08:41:42;;;;;;;1.80;1.70;;;21.30;96.60;;;22.05;61.43;98418.72;4834088;29;124377;-84
2022/06/05 08:44:27;;;;;;;2.30;1.87;;;21.40;96.50;;;22.14;61.24;98409.91;4832834;29;114399;-90
2022/06/05 08:47:01;;;;;;;2.03;1.83;;;21.40;96.50;;;22.18;61.45;98402.28;4835363;29;113149;-89
2022/06/05 08:49:53;;;;;;;2.50;1.87;;;21.50;96.40;;;22.23;61.44;98406.72;4832113;29;124047;-90
2022/06/05 08:52:48;;;;;;;2.10;1.77;;;21.60;96.40;;;22.28;61.30;98411.97;4832468;29;123825;-89
2022/06/05 08:55:41;;;;;;;3.47;1.60;;;21.60;96.30;;;22.34;60.72;98418.00;4817059;29;114766;-90
2022/06/05 08:58:25;;;;;;;2.23;1.70;;;21.70;96.10;;;22.41;60.79;98421.63;4805512;29;113470;-89
2022/06/05 09:01:00;;;;;;;2.03;1.70;;;21.80;96.00;;;22.51;60.61;98414.38;4829499;29;124220;-90
2022/06/05 09:03:36;;;;;;;4.13;1.93;;;21.80;96.00;;;22.67;60.24;98405.50;4833058;29;123825;-90
2022/06/05 09:06:12;;;;;;;2.00;1.80;;;21.90;96.00;;;22.80;60.49;98409.53;4832487;29;115232;-91
2022/06/05 09:08:42;;;;;;;1.93;1.67;;;22.00;95.90;;;22.88;60.18;98411.13;4834410;29;114984;-89
2022/06/05 09:11:39;;;;;;;1.60;1.50;;;22.20;95.80;;;22.98;59.90;98405.94;4834771;29;124060;-89
2022/06/05 09:14:11;;;;;;;3.30;1.70;;;22.20;95.70;;;23.05;59.70;98411.53;4833170;29;123665;-88
2022/06/05 09:16:53;;;;;;;3.43;1.80;;;22.30;95.70;;;23.09;59.56;98412.34;4828340;29;114168;-89
2022/06/05 09:19:26;;;;;;;2.03;1.57;;;22.40;95.40;;;23.14;59.45;98412.72;4891762;28;113701;-89
2022/06/05 09:22:28;;;;;;;1.83;1.40;;;22.50;95.30;;;23.17;59.22;98415.94;4887217;28;124606;-91
2022/06/05 09:25:17;;;;;;;2.03;1.43;;;22.60;95.10;;;23.21;58.96;98425.97;4852612;28;123150;-90
2022/06/05 09:27:51;;;;;;;2.80;1.40;;;22.60;94.90;;;23.27;58.75;98427.19;4872680;28;114053;-89
2022/06/05 09:30:46;;;;;;;2.83;1.40;;;22.70;94.80;;;23.32;58.44;98432.41;4855218;28;114468;-90
2022/06/05 09:33:27;;;;;;;2.03;1.57;;;22.70;94.60;;;23.37;58.32;98442.44;4867932;28;124454;-91
2022/06/05 09:35:59;;;;;;;1.97;1.70;;;22.70;94.50;;;23.44;58.10;98433.97;4870029;28;124539;-89
2022/06/05 09:38:37;;;;;;;1.90;1.70;;;22.80;94.40;;;23.50;57.78;98428.72;4873947;28;113900;-89
2022/06/05 09:41:44;;;;;;;2.20;1.50;;;22.90;94.20;;;23.52;57.80;98426.31;4857048;28;114027;-87
2022/06/05 09:44:43;;;;;;;2.43;1.40;;;22.90;94.20;;;23.62;57.51;98441.59;4874314;28;124140;-86
2022/06/05 09:47:30;;;;;;;1.83;1.37;;;23.00;94.10;;;23.68;57.52;98452.03;4870044;28;124283;-86
2022/06/05 09:50:00;;;;;;;2.80;1.50;;;23.10;94.00;;;23.75;57.26;98452.03;4870283;28;114346;-88
2022/06/05 09:52:31;;;;;;;1.43;1.20;;;23.20;93.90;;;23.83;57.33;98449.16;4847841;28;114037;-88
2022/06/05 09:55:12;;;;;;;1.70;1.40;;;23.20;93.90;;;23.88;56.98;98476.94;4854966;28;124159;-87
2022/06/05 09:58:25;;;;;;;4.60;1.80;;;23.30;93.80;;;23.93;56.83;98479.34;4854836;28;124097;-88
2022/06/05 10:00:55;;;;;;;3.07;1.60;;;23.30;93.60;;;23.93;56.54;98462.41;4853657;28;115761;-89
2022/06/05 10:03:32;;;;;;;1.57;1.47;;;23.30;93.30;;;23.97;56.55;98469.66;4870342;28;114954;-89
2022/06/05 10:06:27;;;;;;;1.47;1.30;;;23.40;93.40;;;24.05;56.54;98470.44;4870224;28;124597;-90
2022/06/05 10:08:59;;;;;;;1.50;1.30;;;23.50;93.40;;;24.15;56.75;98471.56;4872158;28;124404;-88
2022/06/05 10:11:42;;;;;;;1.50;1.30;;;23.50;93.40;;;24.25;56.29;98463.03;4872056;28;113118;-88
2022/06/05 10:14:32;;;;;;;2.37;1.20;;;23.60;93.40;;;24.32;56.31;98470.69;4868392;28;114488;-91
2022/06/05 10:17:28;;;;;;;1.53;1.30;;;23.70;93.20;;;24.36;56.07;98471.44;4866727;28;124566;-91
2022/06/05 10:20:04;;;;;;;1.20;1.10;;;23.80;93.20;;;24.44;56.02;98470.22;4796169;28;121517;-90
2022/06/05 10:22:39;;;;;;;2.43;1.33;;;23.90;93.20;;;24.49;55.94;98471.81;4868983;28;114343;-90
2022/06/05 10:25:30;;;;;;;1.73;1.33;;;23.90;93.10;;;24.58;56.13;98480.63;4871913;28;113972;-91
2022/06/05 10:28:20;;;;;;;1.90;1.53;;;24.00;93.10;;;24.63;55.72;98471.69;4854191;28;124096;-92
2022/06/05 10:31:03;;;;;;;2.30;1.47;;;24.00;93.00;;;24.67;55.84;98475.31;4870575;28;124346;-90
2022/06/05 10:34:20;;;;;;;1.93;1.73;;;24.10;92.90;;;24.66;55.89;98470.88;4865618;28;114536;-90
2022/06/05 10:37:39;;;;;;;2.77;1.50;;;24.10;92.90;;;24.67;55.86;98469.66;4874157;28;112502;-95
2022/06/05 10:40:28;;;;;;;2.03;1.50;;;24.20;93.20;;;24.72;55.70;98474.06;4870426;28;123926;-92
2022/06/05 10:43:13;;;;;;;1.90;1.37;;;24.20;92.90;;;24.73;55.80;98477.69;4862567;28;123025;-93
2022/06/05 10:46:19;;;;;;;5.47;1.80;;;24.20;92.90;;;24.68;56.01;98462.78;4861255;28;114154;-92
2022/06/05 10:49:17;;;;;;;3.03;1.70;;;24.20;92.90;;;24.66;56.04;98464.41;4873040;28;113978;-92
2022/06/05 10:52:13;;;;;;;3.20;2.00;;;24.20;93.10;;;24.63;56.24;98440.59;4845083;28;124131;-93
2022/06/05 10:55:26;;;;;;;2.83;2.43;;;25.80;93.70;;;24.58;56.97;98449.56;4841333;28;123001;-94
2022/06/05 10:58:01;;;;;;;3.33;1.83;;;24.10;93.30;;;24.58;57.04;98457.19;4853885;28;115227;-93
2022/06/05 11:00:38;;;;;;;3.97;2.47;;;24.10;93.40;;;24.51;57.49;98452.44;4854486;28;114114;-93
2022/06/05 11:03:36;;;;;;;5.43;2.60;;;24.10;93.60;;;24.43;57.36;98436.72;4871436;28;123649;-93